Latest Weather Observations for Nowra

IDN60801

Issued at 10:32 am EST Wednesday 22 May 2019 (issued every 10 minutes, with the page automatically refreshed every 10 minutes)

About weather observations | Map of weather stations | Latest weather observations for NSW | Other Formats
Station Details ID: 068072 Name: NOWRA RAN AIR STATION AWS Lat: -34.95 Lon: 150.54 Height: 109.0 m
Data from the previous 72 hours. | See also: Recent months at Nowra
Date/Time
EST
Temp
°C
App
Temp
°C
Dew
Point
°C
Rel
Hum
%
Delta-T
°C
Wind Press
QNH
hPa
Press
MSL
hPa
Rain since
9am
mm
Dir  Spd
km/h
Gust
km/h
Spd
kts
Gust
kts
22/10:00am 19.9 18.8 11.9 60 4.4 NNW 9 13 5 7 1028.1 1028.1 0.0
22/09:30am 18.6 17.3 11.2 62 4.0 NW 9 11 5 6 1028.0 1028.0 0.0
22/09:00am 16.8 15.3 10.4 66 3.4 NW 9 13 5 7 1028.0 1028.0 0.0
22/08:30am 15.3 13.3 10.3 72 2.6 WNW 11 15 6 8 1028.0 1028.0 0.0
22/08:00am 14.5 13.3 10.3 76 2.2 WNW 7 9 4 5 1027.9 1027.9 0.0
22/07:30am 13.3 12.2 10.7 84 1.4 NW 7 9 4 5 1027.6 1027.6 0.0
22/07:00am 12.6 12.7 10.1 85 1.3 CALM 0 6 0 3 1027.3 1027.3 0.0
22/06:30am 12.0 10.6 9.6 85 1.2 W 7 11 4 6 1027.0 1027.0 0.0
22/06:00am 12.2 10.5 9.9 86 1.2 NW 9 13 5 7 1026.6 1026.5 0.0
22/05:30am 12.1 12.1 9.8 86 1.2 CALM 0 0 0 0 1026.3 1026.2 0.0
22/05:00am 11.5 10.3 9.4 87 1.1 NNW 6 7 3 4 1026.0 1025.9 0.0
22/04:30am 12.3 10.6 9.9 85 1.2 W 9 11 5 6 1025.7 1025.6 0.0
22/04:00am 13.2 12.0 10.4 83 1.5 WNW 7 9 4 5 1025.5 1025.4 0.0
22/03:30am 10.9 9.4 9.0 88 0.9 WSW 7 9 4 5 1025.4 1025.3 0.0
22/03:00am 11.4 9.5 9.1 86 1.1 W 9 11 5 6 1025.3 1025.2 0.0
22/02:30am 12.5 10.8 10.0 85 1.3 W 9 11 5 6 1025.1 1025.0 0.0
22/02:00am 11.9 10.5 9.6 86 1.2 WSW 7 9 4 5 1025.1 1025.0 0.0
22/01:30am 11.7 9.4 9.1 84 1.3 SW 11 11 6 6 1025.2 1025.1 0.0
22/01:00am 11.6 10.0 8.8 83 1.4 WSW 7 9 4 5 1025.2 1025.1 0.0
22/12:30am 12.9 12.9 9.7 81 1.6 CALM 0 0 0 0 1025.1 1025.0 0.0
22/12:00am 13.2 13.1 9.3 77 2.0 CALM 0 0 0 0 1025.1 1025.0 0.0
 
Date/Time
EST
Temp
°C
App
Temp
°C
Dew
Point
°C
Rel
Hum
%
Delta-T
°C
Wind Press
QNH
hPa
Press
MSL
hPa
Rain since
9am
mm
Dir  Spd
km/h
Gust
km/h
Spd
kts
Gust
kts
21/11:30pm 13.4 12.5 9.1 75 2.2 W 4 9 2 5 1024.9 1024.8 0.0
21/11:00pm 14.2 12.3 9.2 72 2.5 W 9 11 5 6 1025.0 1024.9 0.0
21/10:30pm 14.6 12.8 9.4 71 2.7 W 9 11 5 6 1024.9 1024.8 0.0
21/10:00pm 15.1 12.9 9.2 68 3.0 WSW 11 13 6 7 1024.9 1024.8 0.0
21/09:30pm 14.7 13.0 7.5 62 3.6 SW 6 7 3 4 1024.7 1024.6 0.0
21/09:00pm 17.9 15.9 8.5 54 4.8 WNW 9 11 5 6 1024.5 1024.4 0.0
21/08:30pm 19.3 16.1 8.3 49 5.7 WNW 15 17 8 9 1024.4 1024.3 0.0
21/08:00pm 19.8 16.5 8.2 47 6.0 WNW 15 20 8 11 1024.3 1024.2 0.0
21/07:30pm 20.3 16.2 8.0 45 6.4 WNW 19 20 10 11 1024.2 1024.1 0.0
21/07:00pm 20.6 17.2 7.6 43 6.7 WNW 15 19 8 10 1024.0 1023.9 0.0
21/06:30pm 21.2 17.4 7.4 41 7.1 WNW 17 22 9 12 1023.8 1023.7 0.0
21/06:00pm 21.6 17.7 7.1 39 7.4 W 17 24 9 13 1023.4 1023.3 0.0
21/05:30pm 22.4 18.5 7.0 37 8.0 WNW 17 26 9 14 1023.0 1022.9 0.0
21/05:00pm 23.0 18.4 6.7 35 8.4 WNW 20 26 11 14 1022.6 1022.6 0.0
21/04:30pm 23.8 18.6 7.4 35 8.6 WNW 24 33 13 18 1022.2 1022.2 0.0
21/04:00pm 24.3 21.3 7.9 35 8.7 WNW 13 22 7 12 1021.9 1021.9 0.0
21/03:30pm 24.5 20.8 8.0 35 8.8 W 17 26 9 14 1021.6 1021.6 0.0
21/03:00pm 24.8 19.4 7.9 34 9.0 W 26 37 14 20 1021.4 1021.4 0.0
21/02:30pm 25.5 19.6 7.6 32 9.5 W 28 39 15 21 1021.2 1021.2 0.0
21/02:00pm 26.0 20.8 7.1 30 10.0 WNW 24 39 13 21 1021.3 1021.3 0.0
21/01:30pm 26.5 21.4 7.5 30 10.2 WNW 24 39 13 21 1021.4 1021.4 0.0
21/01:00pm 26.3 21.1 7.4 30 10.0 WNW 24 33 13 18 1021.6 1021.6 0.0
21/12:30pm 26.0 20.1 7.6 31 9.8 W 28 43 15 23 1022.0 1022.0 0.0
21/12:00pm 25.8 20.0 7.9 32 9.6 W 28 39 15 21 1022.3 1022.3 0.0
21/11:30am 25.2 20.1 7.8 33 9.3 WNW 24 39 13 21 1022.9 1022.8 0.0
21/11:00am 23.9 19.9 9.1 39 8.0 NNW 20 26 11 14 1023.4 1023.3 0.0
21/10:30am 23.2 20.0 9.9 43 7.3 NW 17 20 9 11 1023.7 1023.6 0.0
21/10:00am 21.9 18.3 9.8 46 6.5 NNW 19 28 10 15 1023.9 1023.8 0.0
21/09:30am 20.9 17.7 10.1 50 5.9 NNW 17 24 9 13 1024.1 1024.0 0.0
21/09:00am 19.8 16.0 9.7 52 5.4 NW 20 32 11 17 1024.1 1024.0 0.0
21/08:30am 18.6 14.8 9.9 57 4.6 NW 20 26 11 14 1024.2 1024.1 0.0
21/08:00am 17.7 14.8 9.6 59 4.3 NNW 15 19 8 10 1023.9 1023.8 0.0
21/07:30am 15.9 13.3 9.3 65 3.4 NNW 13 17 7 9 1023.7 1023.6 0.0
21/07:00am 14.9 12.2 8.8 67 3.1 NW 13 17 7 9 1023.3 1023.2 0.0
21/06:30am 15.5 11.4 8.7 64 3.5 NW 20 28 11 15 1023.0 1022.9 0.0
21/06:00am 15.1 11.0 8.6 65 3.3 NW 20 26 11 14 1022.6 1022.6 0.0
21/05:30am 14.8 10.8 8.3 65 3.3 NW 19 20 10 11 1022.5 1022.5 0.0
21/05:00am 14.3 11.1 8.3 67 3.0 NNW 15 19 8 10 1022.5 1022.5 0.0
21/04:30am 14.6 10.8 7.6 63 3.5 NNW 17 19 9 10 1022.6 1022.6 0.0
21/04:00am 15.1 10.9 7.6 61 3.7 NNW 19 22 10 12 1022.6 1022.6 0.0
21/03:30am 15.0 11.2 7.5 61 3.7 NW 17 20 9 11 1022.6 1022.6 0.0
21/03:00am 15.7 11.3 7.2 57 4.2 NW 20 24 11 13 1022.5 1022.5 0.0
21/02:30am 15.9 11.6 7.1 56 4.4 NW 19 26 10 14 1022.6 1022.6 0.0
21/02:00am 16.1 11.3 7.3 56 4.4 NW 22 28 12 15 1022.8 1022.7 0.0
21/01:30am 15.4 11.1 7.7 60 3.9 NW 20 26 11 14 1022.8 1022.7 0.0
21/01:00am 15.3 10.7 8.1 62 3.6 NW 22 26 12 14 1022.9 1022.8 0.0
21/12:30am 12.9 10.6 7.6 70 2.6 NNW 9 13 5 7 1023.1 1023.0 0.0
21/12:00am 13.4 10.0 7.8 69 2.8 NW 15 17 8 9 1023.2 1023.1 0.0
 
Date/Time
EST
Temp
°C
App
Temp
°C
Dew
Point
°C
Rel
Hum
%
Delta-T
°C
Wind Press
QNH
hPa
Press
MSL
hPa
Rain since
9am
mm
Dir  Spd
km/h
Gust
km/h
Spd
kts
Gust
kts
20/11:30pm 13.9 10.7 8.3 69 2.8 NW 15 17 8 9 1023.4 1023.3 0.0
20/11:00pm 14.0 10.8 8.4 69 2.8 NW 15 17 8 9 1023.4 1023.3 0.0
20/10:30pm 14.0 11.2 8.6 70 2.7 WNW 13 15 7 8 1023.8 1023.7 0.0
20/10:00pm 13.9 11.3 9.5 75 2.3 WNW 13 15 7 8 1023.9 1023.8 0.0
20/09:30pm 14.6 11.7 9.8 73 2.5 NW 15 19 8 10 1023.9 1023.8 0.0
20/09:00pm 13.7 11.2 11.0 84 1.4 WNW 15 17 8 9 1023.9 1023.8 0.0
20/08:30pm 11.7 10.9 10.9 95 0.4 NW 6 9 3 5 1023.7 1023.6 0.0
20/08:00pm 11.9 12.1 10.5 91 0.7 CALM 0 0 0 0 1023.5 1023.4 0.0
20/07:30pm 12.9 13.4 11.6 92 0.7 CALM 0 0 0 0 1023.4 1023.3 0.0
20/07:00pm 12.8 11.4 11.0 89 0.9 W 9 13 5 7 1023.3 1023.2 0.0
20/06:30pm 13.9 14.0 11.4 85 1.3 WSW 2 7 1 4 1023.0 1022.9 0.0
20/06:00pm 14.7 14.2 12.0 84 1.5 W 6 13 3 7 1022.8 1022.7 0.0
20/05:30pm 17.5 18.1 12.0 70 3.0 CALM 0 0 0 0 1022.5 1022.5 0.0
20/05:00pm 19.1 18.5 12.4 65 3.7 NE 7 9 4 5 1022.4 1022.4 0.0
20/04:30pm 20.1 18.6 11.8 59 4.6 NE 11 15 6 8 1022.2 1022.2 0.0
20/04:00pm 21.6 19.3 11.9 54 5.4 NE 15 19 8 10 1022.1 1022.1 0.0
20/03:30pm 21.6 18.9 10.4 49 6.1 NE 15 20 8 11 1022.2 1022.2 0.0
20/03:00pm 22.6 19.7 11.0 48 6.4 ENE 17 20 9 11 1022.2 1022.2 0.0
20/02:30pm 23.7 21.6 9.7 41 7.7 NE 11 17 6 9 1022.4 1022.4 0.0
20/02:00pm 23.4 21.3 11.1 46 6.9 NNE 13 17 7 9 1022.8 1022.7 0.0
20/01:30pm 22.8 19.9 9.6 43 7.2 NNE 15 19 8 10 1023.1 1023.0 0.0
20/01:00pm 22.5 20.0 9.6 44 7.0 N 13 17 7 9 1023.6 1023.5 0.0
20/12:30pm 21.2 18.6 9.4 47 6.3 NNW 13 19 7 10 1024.1 1024.0 0.0
20/12:00pm 21.0 18.6 9.9 49 6.0 NNW 13 17 7 9 1024.7 1024.6 0.0
20/11:30am 19.5 17.1 10.2 55 5.0 NNW 13 19 7 10 1025.4 1025.3 0.0
20/11:00am 19.8 17.0 10.0 53 5.2 NNW 15 20 8 11 1025.9 1025.8 0.0
20/10:30am 19.0 16.6 10.0 56 4.8 NW 13 17 7 9 1026.4 1026.3 0.0
20/10:00am 18.0 16.3 11.1 64 3.7 NW 11 13 6 7 1026.6 1026.5 0.0
20/09:30am 17.9 16.1 10.8 63 3.8 NW 11 13 6 7 1026.8 1026.8 0.0
20/09:00am 16.1 15.0 12.1 77 2.2 NW 9 13 5 7 1027.0 1027.0 0.0
20/08:30am 14.5 12.5 11.5 82 1.6 NNW 13 17 7 9 1027.0 1027.0 0.0
20/08:00am 13.7 11.8 11.9 89 1.0 N 13 15 7 8 1026.9 1026.9 0.0
20/07:30am 12.1 10.5 11.5 96 0.3 N 11 13 6 7 1026.4 1026.3 0.0
20/07:00am 11.3 9.6 10.0 92 0.7 NNW 9 11 5 6 1026.1 1026.0 0.0
20/06:30am 13.2 11.2 11.4 89 1.0 NW 13 13 7 7 1026.1 1026.0 0.0
20/06:00am 13.3 11.4 11.7 90 0.9 NW 13 15 7 8 1026.2 1026.1 0.0
20/05:30am 13.3 11.5 12.0 92 0.7 WNW 13 17 7 9 1026.0 1025.9 0.0
20/05:00am 13.4 11.0 11.5 88 1.0 WNW 15 17 8 9 1026.1 1026.0 0.0
20/04:30am 14.5 12.0 12.4 87 1.1 WNW 17 20 9 11 1026.1 1026.0 0.0
20/04:00am 14.2 11.8 12.8 91 0.8 WNW 17 20 9 11 1026.3 1026.2 0.0
20/03:30am 12.3 10.8 12.0 98 0.2 WNW 11 15 6 8 1026.5 1026.4 0.0
20/03:00am 13.3 12.4 12.7 96 0.3 WNW 9 11 5 6 1026.6 1026.5 0.0
20/02:30am 12.9 11.7 12.9 100 0.0 W 11 15 6 8 1026.8 1026.8 0.0
20/02:00am 12.2 10.4 12.2 100 0.0 W 13 17 7 9 1027.1 1027.1 0.0
20/01:30am 9.8 9.0 9.7 99 0.1 WNW 4 7 2 4 1027.1 1027.1 0.0
20/01:00am 10.0 8.3 9.9 99 0.1 NW 9 11 5 6 1027.2 1027.2 0.0
20/12:30am 11.1 11.4 10.9 99 0.1 CALM 0 0 0 0 1027.4 1027.4 0.0
20/12:00am 9.9 9.0 9.4 97 0.2 NW 4 9 2 5 1027.7 1027.7 0.0
 
Date/Time
EST
Temp
°C
App
Temp
°C
Dew
Point
°C
Rel
Hum
%
Delta-T
°C
Wind Press
QNH
hPa
Press
MSL
hPa
Rain since
9am
mm
Dir  Spd
km/h
Gust
km/h
Spd
kts
Gust
kts
19/11:30pm 12.1 11.5 11.6 97 0.3 WNW 6 9 3 5 1027.9 1027.9 0.0
19/11:00pm 12.5 11.9 11.7 95 0.4 W 6 13 3 7 1028.1 1028.1 0.0
19/10:30pm 13.5 11.6 13.0 97 0.3 W 15 17 8 9 1028.2 1028.2 0.0
19/10:00pm 13.1 11.5 12.9 99 0.1 W 13 15 7 8 1028.3 1028.3 0.0
19/09:30pm 12.2 11.5 12.0 99 0.1 W 7 9 4 5 1028.4 1028.4 0.0
19/09:00pm 11.8 12.3 11.6 99 0.1 CALM 0 0 0 0 1028.4 1028.4 0.0
19/08:30pm 12.0 12.5 11.5 97 0.3 CALM 0 0 0 0 1028.4 1028.4 0.0
19/08:00pm 12.9 12.4 12.7 99 0.1 W 7 11 4 6 1028.2 1028.2 0.0
19/07:30pm 11.8 12.0 10.7 93 0.6 CALM 0 0 0 0 1028.2 1028.2 0.0
19/07:00pm 12.8 13.0 10.7 87 1.1 CALM 0 0 0 0 1028.1 1028.1 0.0
19/06:30pm 15.2 14.7 12.7 85 1.4 N 7 9 4 5 1027.9 1027.9 0.0
19/06:00pm 15.3 14.5 11.7 79 1.9 NNE 7 11 4 6 1027.7 1027.7 0.0
19/05:30pm 15.9 14.5 12.1 78 2.1 NE 11 13 6 7 1027.6 1027.6 0.0
19/05:00pm 16.8 15.0 12.1 74 2.6 NE 13 20 7 11 1027.5 1027.5 0.0
19/04:30pm 18.3 16.2 12.3 68 3.3 ENE 15 24 8 13 1027.6 1027.6 0.0
19/04:00pm 19.3 16.6 11.8 62 4.1 ENE 17 26 9 14 1027.6 1027.6 0.0
19/03:30pm 20.1 17.0 11.6 58 4.7 ENE 19 24 10 13 1027.7 1027.7 0.0
19/03:00pm 20.5 17.7 11.2 55 5.1 ENE 17 22 9 12 1027.8 1027.8 0.0
19/02:30pm 21.3 18.9 11.3 53 5.6 ENE 15 28 8 15 1027.8 1027.8 0.0
19/02:00pm 21.1 18.9 10.9 52 5.6 NE 13 20 7 11 1028.0 1028.0 0.0
19/01:30pm 21.5 19.6 11.8 54 5.4 NNE 13 20 7 11 1028.4 1028.4 0.0
19/01:00pm 20.9 19.1 11.0 53 5.4 ENE 11 17 6 9 1028.9 1028.9 0.0
19/12:30pm 21.2 19.9 11.2 53 5.5 NE 9 15 5 8 1029.2 1029.2 0.0
19/12:00pm 20.6 19.3 11.2 55 5.2 NE 9 17 5 9 1029.7 1029.7 0.0
19/11:30am 20.3 19.1 11.5 57 4.9 NNE 9 15 5 8 1030.1 1030.1 0.0
19/11:00am 20.1 20.2 12.8 63 4.1 NNE 4 9 2 5 1030.6 1030.6 0.0

Other formats

Comma delimited format used in spreadsheet applications
http://www.bom.gov.au/fwo/IDN60801/IDN60801.94750.axf

JavaScript Object Notation format (JSON) in row-major order
http://www.bom.gov.au/fwo/IDN60801/IDN60801.94750.json

Data quality

Most of these data are generated automatically and are frequently updated. Quality checks on data are not normally performed. It is possible for incorrect values to appear. Refer to information at About Latest Weather Observations and please check the disclaimer before using these data.